Time;durP1;ratioP1;P1;durP2;ratioP2;P2;SDS_P1;SDS_P2;PMS_P1;PMS_P2;Temp;Humidity;BMP_temperature;BMP_pressure;BME280_temperature;BME280_humidity;BME280_pressure;Samples;Min_cycle;Max_cycle;Signal;HPM_P1;HPM_P2
2022/04/09 00:01:48;;;;;;;;;;;;;;;8.99;100.00;96031.25;1633293;88;20249;-87
2022/04/09 00:04:14;;;;;;;;;;;;;;;8.99;100.00;96028.64;1632979;88;20768;-87
2022/04/09 00:06:40;;;;;;;;;;;;;;;9.00;100.00;96032.38;1632769;88;21970;-84
2022/04/09 00:09:08;;;;;;;;;;;;;;;8.86;100.00;96062.14;1632928;88;26044;-84
2022/04/09 00:11:34;;;;;;;;;;;;;;;8.65;100.00;96023.40;1632708;88;24422;-87
2022/04/09 00:14:00;;;;;;;;;;;;;;;8.54;100.00;96004.11;1632761;88;20236;-86
2022/04/09 00:16:26;;;;;;;;;;;;;;;8.48;100.00;96005.54;1633225;88;25122;-86
2022/04/09 00:18:52;;;;;;;;;;;;;;;8.54;100.00;96012.75;1633285;88;20368;-86
2022/04/09 00:21:18;;;;;;;;;;;;;;;8.57;100.00;96002.48;1631297;88;20915;-86
2022/04/09 00:23:44;;;;;;;;;;;;;;;8.56;100.00;96016.03;1632750;88;24468;-85
2022/04/09 00:26:11;;;;;;;;;;;;;;;8.59;100.00;96013.59;1632544;88;20315;-86
2022/04/09 00:28:37;;;;;;;;;;;;;;;8.65;100.00;96009.06;1633129;88;20361;-85
2022/04/09 00:31:11;;;;;;;;;;;;;;;8.73;100.00;96013.82;1632918;88;20244;-84
2022/04/09 00:33:43;;;;;;;;;;;;;;;8.80;100.00;96020.55;1631954;88;26055;-82
2022/04/09 00:36:09;;;;;;;;;;;;;;;8.82;100.00;96025.13;1632907;87;24523;-83
2022/04/09 00:38:35;;;;;;;;;;;;;;;8.73;100.00;96016.42;1632522;88;20264;-83
2022/04/09 00:41:01;;;;;;;;;;;;;;;8.70;100.00;96019.84;1633164;88;20231;-83
2022/04/09 00:43:27;;;;;;;;;;;;;;;8.66;100.00;96005.00;1633182;88;21981;-86
2022/04/09 00:45:53;;;;;;;;;;;;;;;8.65;100.00;96005.16;1632904;88;20920;-82
2022/04/09 00:48:22;;;;;;;;;;;;;;;8.67;100.00;96011.04;1631247;88;20848;-82
2022/04/09 00:50:48;;;;;;;;;;;;;;;8.67;100.00;96005.31;1632910;88;20180;-86
2022/04/09 00:53:18;;;;;;;;;;;;;;;8.70;100.00;95995.07;1633212;88;25025;-84
2022/04/09 00:58:32;;;;;;;;;;;;;;;8.69;100.00;95980.39;1632518;88;26907;-84
2022/04/09 01:00:59;;;;;;;;;;;;;;;8.62;100.00;95974.19;1633110;87;24422;-86
2022/04/09 01:03:27;;;;;;;;;;;;;;;8.60;100.00;95963.91;1633058;88;20191;-83
2022/04/09 01:05:57;;;;;;;;;;;;;;;8.54;100.00;95958.01;1633380;86;25159;-83
2022/04/09 01:08:23;;;;;;;;;;;;;;;8.61;100.00;95969.94;1633213;88;22034;-83
2022/04/09 01:10:50;;;;;;;;;;;;;;;8.65;100.00;95973.38;1632452;88;25975;-84
2022/04/09 01:13:16;;;;;;;;;;;;;;;8.72;100.00;95978.80;1621923;88;24467;-85
2022/04/09 01:15:42;;;;;;;;;;;;;;;8.75;100.00;95983.20;1633227;88;20284;-84
2022/04/09 01:18:09;;;;;;;;;;;;;;;8.78;100.00;95993.83;1633100;88;25025;-84
2022/04/09 01:20:34;;;;;;;;;;;;;;;8.73;100.00;95981.71;1625456;88;21964;-83
2022/04/09 01:23:01;;;;;;;;;;;;;;;8.71;100.00;95983.19;1608307;87;20970;-83
2022/04/09 01:25:27;;;;;;;;;;;;;;;8.74;100.00;95977.66;1607872;87;25243;-84
2022/04/09 01:27:53;;;;;;;;;;;;;;;8.77;100.00;95982.58;1607924;89;20319;-83
2022/04/09 01:30:19;;;;;;;;;;;;;;;8.75;100.00;95987.59;1607867;89;25023;-83
2022/04/09 01:32:46;;;;;;;;;;;;;;;8.70;100.00;95970.30;1608006;89;20291;-85
2022/04/09 01:35:12;;;;;;;;;;;;;;;8.70;100.00;95980.73;1608013;89;26275;-85
2022/04/09 01:37:40;;;;;;;;;;;;;;;8.70;100.00;95982.86;1607786;89;20303;-85
2022/04/09 01:40:06;;;;;;;;;;;;;;;8.65;100.00;95992.11;1607736;89;20489;-84
2022/04/09 01:42:33;;;;;;;;;;;;;;;8.58;100.00;95991.09;1607966;87;24950;-83
2022/04/09 01:44:59;;;;;;;;;;;;;;;8.58;100.00;95986.70;1608062;89;22098;-83
2022/04/09 01:47:25;;;;;;;;;;;;;;;8.62;100.00;95979.41;1606383;89;21022;-85
2022/04/09 01:49:53;;;;;;;;;;;;;;;8.71;100.00;95956.30;1608122;89;20649;-84
2022/04/09 01:52:19;;;;;;;;;;;;;;;8.61;100.00;95920.41;1599056;89;20203;-82
2022/04/09 01:54:45;;;;;;;;;;;;;;;8.53;100.00;95922.48;1607970;89;24942;-83
2022/04/09 01:57:11;;;;;;;;;;;;;;;8.57;100.00;95918.58;1607957;87;20302;-82
2022/04/09 01:59:37;;;;;;;;;;;;;;;8.60;100.00;95920.89;1607742;87;26048;-82
2022/04/09 02:02:03;;;;;;;;;;;;;;;8.58;100.00;95924.13;1607844;89;20286;-84
2022/04/09 02:04:29;;;;;;;;;;;;;;;8.54;100.00;95914.17;1608140;89;20259;-84
2022/04/09 02:06:55;;;;;;;;;;;;;;;8.49;100.00;95908.13;1608047;89;20263;-82
2022/04/09 02:09:21;;;;;;;;;;;;;;;8.53;100.00;95907.33;1608153;89;20845;-84
2022/04/09 02:11:47;;;;;;;;;;;;;;;8.63;100.00;95911.44;1608122;89;21039;-84
2022/04/09 02:14:13;;;;;;;;;;;;;;;8.77;100.00;95902.22;1607984;89;20730;-84
2022/04/09 02:16:39;;;;;;;;;;;;;;;8.74;100.00;95896.82;1607824;89;20582;-86
2022/04/09 02:19:11;;;;;;;;;;;;;;;8.66;100.00;95888.98;1608056;87;25045;-86
2022/04/09 02:21:37;;;;;;;;;;;;;;;8.60;100.00;95873.97;1607789;87;22879;-86
2022/04/09 02:24:04;;;;;;;;;;;;;;;8.52;100.00;95858.77;1608017;87;26033;-86
2022/04/09 02:26:30;;;;;;;;;;;;;;;8.51;100.00;95852.73;1607852;88;24534;-86
2022/04/09 02:28:57;;;;;;;;;;;;;;;8.58;100.00;95855.05;1607699;89;20343;-86
2022/04/09 02:31:24;;;;;;;;;;;;;;;8.61;100.00;95844.33;1607892;89;25579;-86
2022/04/09 02:33:50;;;;;;;;;;;;;;;8.66;100.00;95838.63;1608041;87;22082;-86
2022/04/09 02:36:16;;;;;;;;;;;;;;;8.66;100.00;95833.42;1607994;87;21526;-86
2022/04/09 02:38:48;;;;;;;;;;;;;;;8.65;100.00;95832.59;1607747;89;25298;-86
2022/04/09 02:41:14;;;;;;;;;;;;;;;8.64;100.00;95830.96;1607776;89;20203;-84
2022/04/09 02:43:41;;;;;;;;;;;;;;;8.61;100.00;95836.98;1607935;87;20315;-85
2022/04/09 02:46:12;;;;;;;;;;;;;;;8.56;100.00;95827.53;1607839;89;22036;-84
2022/04/09 02:48:38;;;;;;;;;;;;;;;8.55;100.00;95817.59;1607872;89;26115;-84
2022/04/09 02:51:04;;;;;;;;;;;;;;;8.56;100.00;95810.09;1599023;89;20874;-84
2022/04/09 02:53:36;;;;;;;;;;;;;;;8.59;100.00;95808.47;1607757;87;20639;-86
2022/04/09 02:56:02;;;;;;;;;;;;;;;8.58;100.00;95797.70;1607771;87;25006;-86
2022/04/09 02:58:28;;;;;;;;;;;;;;;8.53;100.00;95796.55;1607878;89;22222;-86
2022/04/09 03:00:54;;;;;;;;;;;;;;;8.48;100.00;95789.70;1607997;89;21031;-86
2022/04/09 03:03:20;;;;;;;;;;;;;;;8.41;100.00;95777.78;1607984;89;20334;-83
2022/04/09 03:05:46;;;;;;;;;;;;;;;8.35;100.00;95781.02;1607844;89;20849;-83
2022/04/09 03:08:12;;;;;;;;;;;;;;;8.36;100.00;95772.23;1607862;89;20777;-84
2022/04/09 03:10:38;;;;;;;;;;;;;;;8.36;100.00;95760.50;1607960;89;20323;-84
2022/04/09 03:13:04;;;;;;;;;;;;;;;8.30;100.00;95758.53;1607906;89;21040;-82
2022/04/09 03:15:30;;;;;;;;;;;;;;;8.18;100.00;95758.48;1607768;89;24491;-86
2022/04/09 03:17:56;;;;;;;;;;;;;;;8.08;100.00;95757.77;1607538;89;20587;-86
2022/04/09 03:20:22;;;;;;;;;;;;;;;8.02;100.00;95761.81;1607967;89;20324;-86
2022/04/09 03:22:50;;;;;;;;;;;;;;;8.03;100.00;95755.64;1630764;88;20311;-86
2022/04/09 03:25:17;;;;;;;;;;;;;;;8.14;100.00;95750.63;1632784;87;26066;-86
2022/04/09 03:27:45;;;;;;;;;;;;;;;8.19;100.00;95740.55;1633078;88;24433;-84
2022/04/09 03:30:11;;;;;;;;;;;;;;;8.25;100.00;95739.44;1633008;88;20287;-84
2022/04/09 03:32:38;;;;;;;;;;;;;;;8.22;100.00;95738.95;1632993;88;25029;-83
2022/04/09 03:35:05;;;;;;;;;;;;;;;8.22;100.00;95731.13;1633271;88;22206;-82
2022/04/09 03:37:31;;;;;;;;;;;;;;;8.26;100.00;95732.44;1613715;88;25852;-82
2022/04/09 03:39:57;;;;;;;;;;;;;;;8.27;100.00;95720.56;1632800;88;24510;-83
2022/04/09 03:42:23;;;;;;;;;;;;;;;8.28;100.00;95714.88;1633083;88;20175;-83
2022/04/09 03:44:49;;;;;;;;;;;;;;;8.36;100.00;95718.81;1632984;88;25020;-82
2022/04/09 03:47:15;;;;;;;;;;;;;;;8.43;100.00;95716.39;1632924;86;20240;-82
2022/04/09 03:49:41;;;;;;;;;;;;;;;8.43;100.00;95712.48;1632606;88;25973;-82
2022/04/09 03:52:17;;;;;;;;;;;;;;;8.50;100.00;95710.87;1633297;87;20743;-84
2022/04/09 03:54:43;;;;;;;;;;;;;;;8.55;100.00;95710.72;1633122;88;20262;-84
2022/04/09 03:57:10;;;;;;;;;;;;;;;8.67;100.00;95709.91;1632336;88;25179;-82
2022/04/09 03:59:36;;;;;;;;;;;;;;;8.66;100.00;95706.98;1632875;88;22093;-86
2022/04/09 04:02:02;;;;;;;;;;;;;;;8.79;100.00;95711.20;1633120;88;21007;-86
2022/04/09 04:04:28;;;;;;;;;;;;;;;8.84;100.00;95706.31;1632396;88;24475;-86
2022/04/09 04:06:54;;;;;;;;;;;;;;;8.83;100.00;95706.02;1633078;88;20486;-86
2022/04/09 04:09:20;;;;;;;;;;;;;;;8.84;100.00;95705.52;1633068;88;24951;-86
2022/04/09 04:11:46;;;;;;;;;;;;;;;8.84;100.00;95701.61;1633191;88;20837;-82
2022/04/09 04:14:12;;;;;;;;;;;;;;;8.86;100.00;95706.16;1632766;88;21026;-83
2022/04/09 04:16:40;;;;;;;;;;;;;;;8.92;100.00;95702.90;1632564;88;24465;-83
2022/04/09 04:19:12;;;;;;;;;;;;;;;9.03;100.00;95716.91;1632414;88;21285;-85
2022/04/09 04:21:38;;;;;;;;;;;;;;;9.12;100.00;95730.27;1632964;87;25152;-85
2022/04/09 04:24:04;;;;;;;;;;;;;;;9.01;100.00;95773.16;1627220;87;21953;-86
2022/04/09 04:26:30;;;;;;;;;;;;;;;8.68;100.00;95800.98;1626891;87;26086;-83
2022/04/09 04:28:58;;;;;;;;;;;;;;;8.54;100.00;95795.09;1628085;87;24488;-83
2022/04/09 04:31:24;;;;;;;;;;;;;;;8.47;100.00;95838.39;1624353;87;20222;-86
2022/04/09 04:33:50;;;;;;;;;;;;;;;8.33;100.00;95855.45;1629106;87;25020;-86
2022/04/09 04:36:16;;;;;;;;;;;;;;;8.16;100.00;95858.92;1628806;87;20309;-86
2022/04/09 04:38:42;;;;;;;;;;;;;;;8.00;100.00;95882.28;1629639;87;20940;-86
2022/04/09 04:41:08;;;;;;;;;;;;;;;7.83;100.00;95866.22;1626875;87;24484;-86
2022/04/09 04:43:34;;;;;;;;;;;;;;;7.71;100.00;95857.02;1629186;87;20875;-83
2022/04/09 04:46:00;;;;;;;;;;;;;;;7.54;100.00;95880.80;1626018;87;20198;-83
2022/04/09 04:48:26;;;;;;;;;;;;;;;7.40;100.00;95909.97;1628703;87;20888;-87
2022/04/09 04:50:52;;;;;;;;;;;;;;;7.25;100.00;95914.89;1626019;87;21200;-86
2022/04/09 04:53:17;;;;;;;;;;;;;;;7.18;100.00;95847.99;1623141;87;24469;-85
2022/04/09 04:55:43;;;;;;;;;;;;;;;7.09;100.00;95890.81;1624485;87;20244;-85
2022/04/09 04:58:21;;;;;;;;;;;;;;;7.04;100.00;95971.05;1621399;87;20763;-85
2022/04/09 05:00:50;;;;;;;;;;;;;;;6.93;100.00;95897.63;1625647;87;22117;-84
2022/04/09 05:03:16;;;;;;;;;;;;;;;6.84;100.00;95920.62;1627224;87;25368;-87
2022/04/09 05:05:47;;;;;;;;;;;;;;;6.79;100.00;95961.34;1628437;87;20269;-86
2022/04/09 05:08:13;;;;;;;;;;;;;;;6.77;100.00;95976.73;1624297;87;20230;-85
2022/04/09 05:10:39;;;;;;;;;;;;;;;6.74;100.00;95955.77;1622765;87;20756;-87
2022/04/09 05:13:05;;;;;;;;;;;;;;;6.75;100.00;95970.88;1628670;87;20368;-88
2022/04/09 05:15:31;;;;;;;;;;;;;;;6.72;100.00;95987.56;1625574;87;26049;-87
2022/04/09 05:17:57;;;;;;;;;;;;;;;6.71;100.00;96023.13;1625777;87;20858;-87
2022/04/09 05:20:30;;;;;;;;;;;;;;;6.64;100.00;96059.77;1628105;87;20320;-86
2022/04/09 05:23:01;;;;;;;;;;;;;;;6.55;100.00;96090.95;1637625;87;25617;-87
2022/04/09 05:25:31;;;;;;;;;;;;;;;6.47;100.00;96122.02;1644773;87;22679;-84
2022/04/09 05:27:56;;;;;;;;;;;;;;;6.33;100.00;96138.03;1644912;86;26031;-83
2022/04/09 05:30:23;;;;;;;;;;;;;;;6.17;100.00;96152.36;1645006;87;20229;-86
2022/04/09 05:32:49;;;;;;;;;;;;;;;6.04;100.00;96169.99;1645198;87;20196;-85
2022/04/09 05:35:16;;;;;;;;;;;;;;;5.80;100.00;96193.67;1644658;87;24969;-85
2022/04/09 05:37:46;;;;;;;;;;;;;;;5.53;100.00;96197.81;1644833;87;22058;-85
2022/04/09 05:40:22;;;;;;;;;;;;;;;5.28;100.00;96214.17;1644923;87;26177;-85
2022/04/09 05:42:48;;;;;;;;;;;;;;;5.03;100.00;96236.59;1644770;87;24309;-84
2022/04/09 05:45:14;;;;;;;;;;;;;;;4.84;100.00;96243.78;1645076;87;20220;-87
2022/04/09 05:47:44;;;;;;;;;;;;;;;4.69;100.00;96252.78;1644953;87;20717;-87
2022/04/09 05:50:10;;;;;;;;;;;;;;;4.54;100.00;96267.80;1644601;87;22098;-85
2022/04/09 05:52:36;;;;;;;;;;;;;;;4.42;100.00;96279.14;1644714;87;26076;-84
2022/04/09 05:55:03;;;;;;;;;;;;;;;4.35;100.00;96280.59;1645236;87;24627;-84
2022/04/09 05:57:31;;;;;;;;;;;;;;;4.28;100.00;96283.30;1644717;87;20160;-84
2022/04/09 05:59:57;;;;;;;;;;;;;;;4.28;100.00;96290.25;1644054;86;25044;-84
2022/04/09 06:02:24;;;;;;;;;;;;;;;4.34;100.00;96299.66;1644522;87;20843;-85
2022/04/09 06:04:50;;;;;;;;;;;;;;;4.40;100.00;96312.59;1644958;87;26109;-87
2022/04/09 06:07:17;;;;;;;;;;;;;;;4.42;100.00;96333.52;1644860;87;20274;-87
2022/04/09 06:09:43;;;;;;;;;;;;;;;4.34;100.00;96350.14;1644361;87;20249;-85
2022/04/09 06:12:10;;;;;;;;;;;;;;;4.30;100.00;96360.39;1644576;87;20211;-85
2022/04/09 06:14:35;;;;;;;;;;;;;;;4.32;100.00;96371.44;1645178;87;22059;-87
2022/04/09 06:17:02;;;;;;;;;;;;;;;4.36;100.00;96379.81;1644855;87;20993;-87
2022/04/09 06:19:29;;;;;;;;;;;;;;;4.34;100.00;96393.33;1644771;87;24618;-87
2022/04/09 06:21:56;;;;;;;;;;;;;;;4.27;100.00;96414.98;1639619;87;20322;-84
2022/04/09 06:24:22;;;;;;;;;;;;;;;4.30;100.00;96420.41;1607855;89;25157;-85
2022/04/09 06:26:48;;;;;;;;;;;;;;;4.38;100.00;96421.45;1607905;89;21983;-85
2022/04/09 06:29:14;;;;;;;;;;;;;;;4.45;100.00;96425.23;1606259;89;26058;-84
2022/04/09 06:31:40;;;;;;;;;;;;;;;4.52;100.00;96441.95;1607835;89;20294;-88
2022/04/09 06:34:06;;;;;;;;;;;;;;;4.53;100.00;96459.58;1607934;89;20826;-85
2022/04/09 06:36:32;;;;;;;;;;;;;;;4.42;100.00;96466.09;1607817;89;25116;-84
2022/04/09 06:38:58;;;;;;;;;;;;;;;4.34;100.00;96486.55;1608155;89;20320;-85
2022/04/09 06:41:25;;;;;;;;;;;;;;;4.26;100.00;96492.30;1608051;89;20823;-85
2022/04/09 06:43:52;;;;;;;;;;;;;;;4.21;100.00;96489.23;1607815;89;24689;-86
2022/04/09 06:46:21;;;;;;;;;;;;;;;4.28;100.00;96505.13;1607860;89;20246;-86
2022/04/09 06:48:57;;;;;;;;;;;;;;;4.28;100.00;96513.73;1607791;89;25076;-86
2022/04/09 06:51:23;;;;;;;;;;;;;;;4.27;100.00;96515.95;1607718;89;22256;-84
2022/04/09 06:53:48;;;;;;;;;;;;;;;4.32;100.00;96513.02;1609245;87;21130;-86
2022/04/09 06:56:14;;;;;;;;;;;;;;;4.34;100.00;96522.80;1607754;89;20838;-87
2022/04/09 06:58:40;;;;;;;;;;;;;;;4.33;100.00;96514.67;1607897;89;20248;-84
2022/04/09 07:01:06;;;;;;;;;;;;;;;4.30;100.00;96526.09;1607805;89;24957;-86
2022/04/09 07:03:32;;;;;;;;;;;;;;;4.28;100.00;96542.20;1607694;89;20907;-86
2022/04/09 07:05:58;;;;;;;;;;;;;;;4.33;100.00;96548.33;1607982;89;21200;-83
2022/04/09 07:08:24;;;;;;;;;;;;;;;4.40;100.00;96552.95;1607854;87;20474;-86
2022/04/09 07:10:50;;;;;;;;;;;;;;;4.48;100.00;96566.59;1607905;89;20456;-85
2022/04/09 07:13:16;;;;;;;;;;;;;;;4.49;100.00;96568.25;1607866;88;25035;-85
2022/04/09 07:15:43;;;;;;;;;;;;;;;4.51;100.00;96576.27;1607954;89;22037;-83
2022/04/09 07:18:09;;;;;;;;;;;;;;;4.54;100.00;96581.67;1607607;89;26024;-83
2022/04/09 07:20:35;;;;;;;;;;;;;;;4.51;100.00;96590.98;1607853;89;24450;-83
2022/04/09 07:23:02;;;;;;;;;;;;;;;4.46;100.00;96606.05;1607551;87;20225;-87
2022/04/09 07:25:29;;;;;;;;;;;;;;;4.34;100.00;96616.84;1607778;89;25730;-83
2022/04/09 07:27:55;;;;;;;;;;;;;;;4.21;100.00;96625.14;1607924;89;22036;-86
2022/04/09 07:30:21;;;;;;;;;;;;;;;4.18;100.00;96633.15;1608001;88;21051;-83
2022/04/09 07:32:49;;;;;;;;;;;;;;;4.20;100.00;96640.31;1606883;89;20225;-86
2022/04/09 07:35:15;;;;;;;;;;;;;;;4.15;100.00;96674.77;1607774;89;20229;-86
2022/04/09 07:37:45;;;;;;;;;;;;;;;4.11;100.00;96690.17;1607624;89;26006;-86
2022/04/09 07:40:12;;;;;;;;;;;;;;;4.03;100.00;96697.22;1606310;89;21974;-86
2022/04/09 07:42:40;;;;;;;;;;;;;;;3.97;100.00;96712.34;1608002;89;26706;-86
2022/04/09 07:45:07;;;;;;;;;;;;;;;3.94;100.00;96712.55;1606209;89;25287;-86
2022/04/09 07:47:33;;;;;;;;;;;;;;;3.96;100.00;96718.45;1607778;89;20288;-85
2022/04/09 07:50:03;;;;;;;;;;;;;;;3.93;100.00;96723.36;1607766;89;25046;-85
2022/04/09 07:52:30;;;;;;;;;;;;;;;3.93;100.00;96738.09;1607887;89;22085;-86
2022/04/09 07:54:57;;;;;;;;;;;;;;;3.92;100.00;96747.61;1607789;89;26078;-86
2022/04/09 07:57:26;;;;;;;;;;;;;;;3.92;100.00;96757.97;1607679;89;24458;-86
2022/04/09 07:59:55;;;;;;;;;;;;;;;3.96;100.00;96767.16;1598879;89;20652;-85
2022/04/09 08:02:22;;;;;;;;;;;;;;;4.02;100.00;96760.73;1606715;89;25828;-82
2022/04/09 08:04:48;;;;;;;;;;;;;;;4.01;100.00;96766.83;1607694;89;22055;-85
2022/04/09 08:07:16;;;;;;;;;;;;;;;4.05;100.00;96777.31;1607661;89;25954;-85
2022/04/09 08:09:44;;;;;;;;;;;;;;;4.06;100.00;96778.98;1607706;89;24489;-83
2022/04/09 08:12:13;;;;;;;;;;;;;;;4.06;100.00;96794.05;1607816;89;20202;-86
2022/04/09 08:14:42;;;;;;;;;;;;;;;4.10;100.00;96805.83;1607597;89;25094;-86
2022/04/09 08:17:08;;;;;;;;;;;;;;;4.17;100.00;96820.01;1607720;89;22060;-86
2022/04/09 08:19:35;;;;;;;;;;;;;;;4.20;100.00;96835.77;1607852;89;21871;-86
2022/04/09 08:22:04;;;;;;;;;;;;;;;4.18;100.00;96822.13;1607867;89;24531;-85
2022/04/09 08:24:31;;;;;;;;;;;;;;;4.18;100.00;96816.95;1630051;88;20257;-84
2022/04/09 08:26:57;;;;;;;;;;;;;;;4.23;100.00;96828.28;1633453;88;24962;-84
2022/04/09 08:29:24;;;;;;;;;;;;;;;4.29;100.00;96840.33;1633655;88;22040;-85
2022/04/09 08:31:51;;;;;;;;;;;;;;;4.43;100.00;96857.01;1631253;88;26111;-86
2022/04/09 08:34:17;;;;;;;;;;;;;;;4.49;100.00;96857.88;1633643;88;24603;-84
2022/04/09 08:36:44;;;;;;;;;;;;;;;4.54;100.00;96861.43;1632966;88;20527;-85
2022/04/09 08:39:12;;;;;;;;;;;;;;;4.60;100.00;96860.53;1633064;88;25051;-86
2022/04/09 08:41:40;;;;;;;;;;;;;;;4.68;100.00;96853.98;1633288;88;21919;-86
2022/04/09 08:44:07;;;;;;;;;;;;;;;4.72;100.00;96867.08;1633237;88;26671;-86
2022/04/09 08:46:34;;;;;;;;;;;;;;;4.69;100.00;96869.90;1633185;88;24603;-83
2022/04/09 08:49:02;;;;;;;;;;;;;;;4.62;100.00;96881.98;1632983;88;20455;-83
2022/04/09 08:51:34;;;;;;;;;;;;;;;4.59;100.00;96889.96;1633483;87;24994;-83
2022/04/09 08:54:04;;;;;;;;;;;;;;;4.66;100.00;96903.31;1621195;88;22943;-84
2022/04/09 08:56:35;;;;;;;;;;;;;;;4.74;100.00;96916.58;1633687;88;26181;-86
2022/04/09 08:59:02;;;;;;;;;;;;;;;4.77;100.00;96931.06;1633281;88;24517;-83
2022/04/09 09:01:29;;;;;;;;;;;;;;;4.75;100.00;96936.34;1633370;88;20288;-83
2022/04/09 09:03:58;;;;;;;;;;;;;;;4.77;100.00;96946.61;1633183;88;24684;-84
2022/04/09 09:06:31;;;;;;;;;;;;;;;4.78;100.00;96956.88;1633279;88;21941;-84
2022/04/09 09:08:59;;;;;;;;;;;;;;;4.84;100.00;96969.41;1632662;88;26820;-84
2022/04/09 09:11:26;;;;;;;;;;;;;;;4.90;100.00;96975.92;1633685;88;24533;-84
2022/04/09 09:14:00;;;;;;;;;;;;;;;4.93;100.00;96978.28;1633333;88;20510;-84
2022/04/09 09:16:30;;;;;;;;;;;;;;;4.91;100.00;96978.88;1633327;88;26016;-82
2022/04/09 09:19:00;;;;;;;;;;;;;;;4.90;100.00;96978.52;1633457;88;21457;-82
2022/04/09 09:21:27;;;;;;;;;;;;;;;4.89;100.00;96985.92;1632819;87;26060;-86
2022/04/09 09:23:55;;;;;;;;;;;;;;;4.86;100.00;96995.20;1613030;88;24430;-83
2022/04/09 09:26:22;;;;;;;;;;;;;;;4.84;100.00;96996.63;1601690;88;20276;-83
2022/04/09 09:28:57;;;;;;;;;;;;;;;4.84;100.00;96991.44;1598365;88;25199;-83
2022/04/09 09:31:41;;;;;;;;;;;;;;;4.86;100.00;96996.48;1597702;89;21999;-83
2022/04/09 09:34:15;;;;;;;;;;;;;;;4.90;100.00;97004.44;1597993;89;26153;-87
2022/04/09 09:36:43;;;;;;;;;;;;;;;4.84;100.00;97006.16;1597917;89;24414;-86
2022/04/09 09:39:13;;;;;;;;;;;;;;;4.86;100.00;97001.21;1606221;88;20179;-85
2022/04/09 09:41:50;;;;;;;;;;;;;;;4.90;100.00;97011.75;1573948;91;25009;-86
2022/04/09 09:44:17;;;;;;;;;;;;;;;5.01;100.00;97014.88;1599560;89;22044;-83
2022/04/09 09:46:44;;;;;;;;;;;;;;;5.12;100.00;97013.66;1598916;88;26186;-83
2022/04/09 09:49:10;;;;;;;;;;;;;;;5.27;100.00;97019.52;1598262;89;23917;-84
2022/04/09 09:51:36;;;;;;;;;;;;;;;5.36;100.00;97024.03;1598671;89;20341;-86
2022/04/09 09:54:11;;;;;;;;;;;;;;;5.38;100.00;97026.06;1600158;89;25011;-84
2022/04/09 09:56:39;;;;;;;;;;;;;;;5.43;100.00;97027.39;1601316;89;21798;-84
2022/04/09 09:59:06;;;;;;;;;;;;;;;5.45;100.00;97026.80;1598886;89;26811;-84
2022/04/09 10:01:36;;;;;;;;;;;;;;;5.50;100.00;97042.52;1626609;87;24670;-84
2022/04/09 10:04:11;;;;;;;;;;;;;;;5.50;100.00;97045.12;1597875;89;20247;-84
2022/04/09 10:06:38;;;;;;;;;;;;;;;5.57;100.00;97041.13;1599314;89;25084;-84
2022/04/09 10:09:05;;;;;;;;;;;;;;;5.63;100.00;97051.06;1600729;89;21564;-84
2022/04/09 10:11:36;;;;;;;;;;;;;;;5.65;100.00;97066.06;1598977;89;26067;-84
2022/04/09 10:14:04;;;;;;;;;;;;;;;5.65;100.00;97067.36;1599965;87;24683;-84
2022/04/09 10:16:36;;;;;;;;;;;;;;;5.62;100.00;97070.99;1598996;87;20207;-83
2022/04/09 10:19:04;;;;;;;;;;;;;;;5.59;100.00;97071.70;1602814;89;24983;-82
2022/04/09 10:21:34;;;;;;;;;;;;;;;5.53;100.00;97083.80;1600163;89;21680;-82
2022/04/09 10:24:02;;;;;;;;;;;;;;;5.45;100.00;97086.47;1622433;87;26057;-82
2022/04/09 10:26:28;;;;;;;;;;;;;;;5.38;100.00;97087.86;1642703;86;25246;-83
2022/04/09 10:29:08;;;;;;;;;;;;;;;5.32;100.00;97086.98;1643798;87;20481;-82
2022/04/09 10:31:38;;;;;;;;;;;;;;;5.26;100.00;97088.71;1622653;87;25617;-86
2022/04/09 10:34:06;;;;;;;;;;;;;;;5.24;100.00;97096.22;1641543;87;22048;-87
2022/04/09 10:36:43;;;;;;;;;;;;;;;5.21;100.00;97102.94;1644369;87;26006;-87
2022/04/09 10:39:25;;;;;;;;;;;;;;;5.15;100.00;97099.47;1642666;87;24451;-87
2022/04/09 10:41:53;;;;;;;;;;;;;;;5.13;100.00;97102.16;1638962;85;20160;-87
2022/04/09 10:44:36;;;;;;;;;;;;;;;5.13;100.00;97092.28;1621705;87;24992;-86
2022/04/09 10:47:03;;;;;;;;;;;;;;;5.12;100.00;97086.73;1617074;88;22811;-86
2022/04/09 10:49:30;;;;;;;;;;;;;;;5.15;100.00;97082.61;1642275;86;25905;-85
2022/04/09 10:52:19;;;;;;;;;;;;;;;5.19;100.00;97080.16;1644264;86;25095;-86
2022/04/09 10:54:44;;;;;;;;;;;;;;;5.25;100.00;97081.03;1643901;86;20322;-87
2022/04/09 10:57:11;;;;;;;;;;;;;;;5.29;100.00;97086.39;1646280;87;25130;-87
2022/04/09 10:59:38;;;;;;;;;;;;;;;5.38;100.00;97102.13;1641054;87;22234;-87
2022/04/09 11:02:04;;;;;;;;;;;;;;;5.46;100.00;97109.34;1644545;87;26669;-86
2022/04/09 11:04:34;;;;;;;;;;;;;;;5.53;100.00;97119.66;1645422;86;24485;-83
2022/04/09 11:07:07;;;;;;;;;;;;;;;5.59;100.00;97121.00;1642994;87;20375;-87
2022/04/09 11:09:52;;;;;;;;;;;;;;;5.63;100.00;97130.22;1643999;87;25077;-85
2022/04/09 11:12:20;;;;;;;;;;;;;;;5.63;100.00;97124.56;1613995;87;21857;-85
2022/04/09 11:14:51;;;;;;;;;;;;;;;5.68;100.00;97117.27;1645556;87;26921;-85
2022/04/09 11:17:36;;;;;;;;;;;;;;;5.72;100.00;97117.44;1641263;87;24504;-87
2022/04/09 11:20:10;;;;;;;;;;;;;;;5.75;100.00;97122.40;1643129;87;20380;-84
2022/04/09 11:22:43;;;;;;;;;;;;;;;5.81;100.00;97125.02;1644654;87;24961;-87
2022/04/09 11:25:11;;;;;;;;;;;;;;;5.87;100.00;97130.64;1642679;87;22747;-87
2022/04/09 11:27:37;;;;;;;;;;;;;;;5.91;100.00;97129.94;1637841;87;26977;-87
2022/04/09 11:30:03;;;;;;;;;;;;;;;5.98;100.00;97121.25;1642448;87;24511;-83
2022/04/09 11:32:32;;;;;;;;;;;;;;;6.08;100.00;97113.14;1640196;87;20243;-85
2022/04/09 11:35:05;;;;;;;;;;;;;;;6.15;100.00;97111.77;1643556;87;25000;-85
2022/04/09 11:37:30;;;;;;;;;;;;;;;6.30;100.00;97127.05;1644274;86;21983;-85
2022/04/09 11:39:58;;;;;;;;;;;;;;;6.46;100.00;97139.73;1641425;86;26031;-85
2022/04/09 11:42:24;;;;;;;;;;;;;;;6.57;100.00;97146.73;1640909;87;24510;-85
2022/04/09 11:44:50;;;;;;;;;;;;;;;6.59;100.00;97151.36;1647267;86;20230;-87
2022/04/09 11:47:17;;;;;;;;;;;;;;;6.70;100.00;97159.20;1627793;87;24978;-83
2022/04/09 11:49:44;;;;;;;;;;;;;;;6.72;100.00;97167.69;1633178;87;22694;-86
2022/04/09 11:52:11;;;;;;;;;;;;;;;6.73;100.00;97164.15;1648037;86;26195;-86
2022/04/09 11:54:38;;;;;;;;;;;;;;;6.76;100.00;97167.84;1646670;86;25252;-83
2022/04/09 11:57:10;;;;;;;;;;;;;;;6.78;100.00;97172.43;1605466;88;20337;-83
2022/04/09 11:59:36;;;;;;;;;;;;;;;6.87;100.00;97167.03;1603636;88;25926;-83
2022/04/09 12:02:02;;;;;;;;;;;;;;;6.92;100.00;97168.34;1607532;88;22081;-86
2022/04/09 12:04:35;;;;;;;;;;;;;;;6.94;100.00;97178.61;1637158;86;26174;-85
2022/04/09 12:07:02;;;;;;;;;;;;;;;6.94;100.00;97175.54;1633484;87;24550;-89
2022/04/09 12:09:28;;;;;;;;;;;;;;;6.94;100.00;97178.14;1642246;87;20467;-84
2022/04/09 12:11:55;;;;;;;;;;;;;;;6.99;100.00;97173.89;1639544;87;25046;-85
2022/04/09 12:14:21;;;;;;;;;;;;;;;7.05;100.00;97187.27;1639079;86;22266;-88
2022/04/09 12:16:47;;;;;;;;;;;;;;;7.04;100.00;97192.11;1639498;86;26192;-88
2022/04/09 12:19:13;;;;;;;;;;;;;;;7.06;100.00;97198.03;1639993;87;24473;-88
2022/04/09 12:21:41;;;;;;;;;;;;;;;7.09;100.00;97193.08;1637876;87;20289;-88
2022/04/09 12:24:08;;;;;;;;;;;;;;;7.07;100.00;97200.16;1638649;87;25952;-88
2022/04/09 12:26:41;;;;;;;;;;;;;;;7.11;100.00;97198.52;1629455;88;22001;-89
2022/04/09 12:29:19;;;;;;;;;;;;;;;7.13;100.00;97202.30;1629969;88;26138;-84
2022/04/09 12:31:51;;;;;;;;;;;;;;;7.19;100.00;97206.22;1629886;88;24505;-85
2022/04/09 12:34:19;;;;;;;;;;;;;;;7.20;100.00;97203.47;1629838;88;20575;-88
2022/04/09 12:37:00;;;;;;;;;;;;;;;7.22;100.00;97204.67;1629385;88;25680;-84
2022/04/09 12:39:27;;;;;;;;;;;;;;;7.22;100.00;97198.16;1629914;88;22137;-84
2022/04/09 12:41:53;;;;;;;;;;;;;;;7.22;100.00;97188.59;1629675;88;26673;-84
2022/04/09 12:44:33;;;;;;;;;;;;;;;7.24;100.00;97180.67;1629812;88;20883;-85
2022/04/09 12:46:59;;;;;;;;;;;;;;;7.27;100.00;97181.73;1628735;88;20439;-87
2022/04/09 12:49:29;;;;;;;;;;;;;;;7.23;100.00;97188.12;1629858;88;25025;-87
2022/04/09 12:51:55;;;;;;;;;;;;;;;7.15;100.00;97179.11;1630007;88;22037;-84
2022/04/09 12:54:23;;;;;;;;;;;;;;;7.09;100.00;97191.78;1604971;88;21347;-84